Time;durP1;ratioP1;P1;durP2;ratioP2;P2;SDS_P1;SDS_P2;PMS_P1;PMS_P2;Temp;Humidity;BMP_temperature;BMP_pressure;BME280_temperature;BME280_humidity;BME280_pressure;Samples;Min_cycle;Max_cycle;Signal;HPM_P1;HPM_P2
2021/06/13 00:02:15;;;;;;;15.03;7.10;;;14.90;44.10;;;;;;5015672;28;20443;-74
2021/06/13 00:04:41;;;;;;;16.33;7.30;;;14.80;44.50;;;;;;5013168;28;20404;-75
2021/06/13 00:07:06;;;;;;;16.67;7.90;;;14.80;45.00;;;;;;5014077;28;20396;-75
2021/06/13 00:09:32;;;;;;;13.45;7.35;;;14.90;44.30;;;;;;5013041;28;20405;-75
2021/06/13 00:11:57;;;;;;;21.00;7.40;;;14.90;44.20;;;;;;5013817;28;20401;-75
2021/06/13 00:14:23;;;;;;;18.90;7.00;;;14.80;44.30;;;;;;5012601;28;20409;-76
2021/06/13 00:16:50;;;;;;;22.52;7.90;;;14.80;44.60;;;;;;5012455;28;20392;-75
2021/06/13 00:19:16;;;;;;;19.85;7.28;;;14.70;45.20;;;;;;5012238;28;20412;-75
2021/06/13 00:21:41;;;;;;;25.30;8.57;;;14.70;45.70;;;;;;5011955;28;20397;-74
2021/06/13 00:24:08;;;;;;;27.73;8.90;;;14.60;45.80;;;;;;4993925;28;20451;-75
2021/06/13 00:26:35;;;;;;;25.83;7.97;;;14.60;46.00;;;;;;5012251;28;20391;-75
2021/06/13 00:29:00;;;;;;;20.02;7.53;;;14.60;46.80;;;;;;5011810;28;20410;-74
2021/06/13 00:31:26;;;;;;;23.70;7.93;;;14.60;46.20;;;;;;5012242;28;20381;-75
2021/06/13 00:33:52;;;;;;;22.13;7.27;;;14.60;46.40;;;;;;5010936;28;20389;-74
2021/06/13 00:36:18;;;;;;;19.17;7.80;;;14.70;46.20;;;;;;5012372;28;20408;-75
2021/06/13 00:38:43;;;;;;;24.23;8.88;;;14.70;46.20;;;;;;5011606;28;20487;-75
2021/06/13 00:41:10;;;;;;;18.97;7.47;;;14.60;46.50;;;;;;5010412;28;20444;-75
2021/06/13 00:43:36;;;;;;;20.70;7.90;;;14.60;46.90;;;;;;5014229;28;20937;-75
2021/06/13 00:46:02;;;;;;;25.15;8.57;;;14.50;47.00;;;;;;5008510;28;20435;-75
2021/06/13 00:48:27;;;;;;;18.55;8.00;;;14.40;48.00;;;;;;5028321;28;20431;-76
2021/06/13 00:50:55;;;;;;;25.33;8.40;;;14.40;48.20;;;;;;5008089;28;20452;-75
2021/06/13 00:53:21;;;;;;;31.10;9.38;;;14.40;48.30;;;;;;5004279;28;20438;-76
2021/06/13 00:55:47;;;;;;;22.58;8.27;;;14.30;48.90;;;;;;5013033;28;20412;-76
2021/06/13 00:58:13;;;;;;;18.10;8.07;;;14.30;49.10;;;;;;5015329;28;20846;-76
2021/06/13 01:00:39;;;;;;;21.93;8.53;;;14.30;49.70;;;;;;5014406;28;20396;-77
2021/06/13 01:03:07;;;;;;;21.40;7.55;;;14.30;49.80;;;;;;5022164;28;20444;-77
2021/06/13 01:05:32;;;;;;;18.48;8.30;;;14.20;50.40;;;;;;5007655;28;20407;-77
2021/06/13 01:08:16;;;;;;;24.75;8.25;;;14.20;50.50;;;;;;5007263;28;20397;-77
2021/06/13 01:10:47;;;;;;;23.63;9.13;;;14.10;51.60;;;;;;5015268;28;20389;-76
2021/06/13 01:13:15;;;;;;;24.30;9.13;;;14.10;52.20;;;;;;5012628;28;20443;-76
2021/06/13 01:15:56;;;;;;;20.75;9.65;;;14.00;52.30;;;;;;5012163;28;20413;-76
2021/06/13 01:18:46;;;;;;;23.00;9.70;;;14.00;52.50;;;;;;5012323;28;20388;-77
2021/06/13 01:21:18;;;;;;;20.60;9.48;;;14.00;52.70;;;;;;5011928;28;20736;-75
2021/06/13 01:23:46;;;;;;;17.58;9.68;;;14.00;53.10;;;;;;5015276;28;20487;-76
2021/06/13 01:26:30;;;;;;;23.10;10.27;;;13.90;54.10;;;;;;5013554;28;20743;-77
2021/06/13 01:29:10;;;;;;;20.00;9.50;;;13.90;54.60;;;;;;5014597;28;20381;-77
2021/06/13 01:31:42;;;;;;;24.23;9.50;;;13.80;55.60;;;;;;5012798;28;20401;-78
2021/06/13 01:34:12;;;;;;;21.48;9.48;;;13.60;56.70;;;;;;4994060;28;20396;-76
2021/06/13 01:36:39;;;;;;;20.73;9.90;;;13.70;56.80;;;;;;5011168;28;20491;-76
2021/06/13 01:39:09;;;;;;;19.65;9.23;;;13.50;58.00;;;;;;5011073;28;20468;-75
2021/06/13 01:41:37;;;;;;;21.58;9.90;;;13.40;59.40;;;;;;5005874;28;20400;-77
2021/06/13 01:44:04;;;;;;;23.35;9.75;;;13.50;58.40;;;;;;5010657;28;20385;-76
2021/06/13 01:46:33;;;;;;;18.13;8.90;;;13.40;59.00;;;;;;5011110;28;20387;-76
2021/06/13 01:49:01;;;;;;;22.52;9.77;;;13.70;57.20;;;;;;5011084;28;20720;-75
2021/06/13 01:51:26;;;;;;;26.00;9.43;;;13.60;56.70;;;;;;4993252;28;20392;-76
2021/06/13 01:53:52;;;;;;;17.95;9.30;;;13.50;58.00;;;;;;5010584;28;20397;-75
2021/06/13 01:56:20;;;;;;;22.45;9.82;;;13.50;58.50;;;;;;5011019;28;20404;-76
2021/06/13 01:58:48;;;;;;;20.75;9.40;;;13.40;60.30;;;;;;5011216;28;20391;-76
2021/06/13 02:01:17;;;;;;;21.80;10.20;;;13.40;59.10;;;;;;4993130;28;20431;-76
2021/06/13 02:03:47;;;;;;;23.10;9.53;;;13.20;61.30;;;;;;4993051;28;20380;-75
2021/06/13 02:06:14;;;;;;;26.25;9.88;;;13.10;62.70;;;;;;5011270;28;20969;-75
2021/06/13 02:08:41;;;;;;;23.42;10.43;;;13.80;64.30;;;;;;5009544;28;20459;-75
2021/06/13 02:11:09;;;;;;;27.52;11.00;;;13.30;63.10;;;;;;5009058;28;20392;-76
2021/06/13 02:13:37;;;;;;;22.88;9.82;;;13.40;62.30;;;;;;5011373;28;20448;-75
2021/06/13 02:16:05;;;;;;;19.60;9.70;;;13.40;62.60;;;;;;4993483;28;20448;-76
2021/06/13 02:18:32;;;;;;;20.53;9.80;;;13.20;63.40;;;;;;5011142;28;20725;-75
2021/06/13 02:21:01;;;;;;;19.27;10.02;;;13.20;65.20;;;;;;4992226;28;20797;-75
2021/06/13 02:23:28;;;;;;;20.77;10.10;;;13.20;65.10;;;;;;5010133;28;20959;-75
2021/06/13 02:25:57;;;;;;;20.38;10.40;;;13.30;64.80;;;;;;5012606;28;20760;-75
2021/06/13 02:28:23;;;;;;;22.93;11.00;;;13.20;65.30;;;;;;5015380;28;20381;-75
2021/06/13 02:30:52;;;;;;;25.53;10.73;;;13.00;67.50;;;;;;5014750;28;20488;-75
2021/06/13 02:33:19;;;;;;;27.63;11.77;;;13.00;68.10;;;;;;5005925;28;20399;-75
2021/06/13 02:35:48;;;;;;;21.75;10.60;;;13.00;68.00;;;;;;5014279;28;20408;-75
2021/06/13 02:38:14;;;;;;;21.52;11.10;;;12.90;68.30;;;;;;5014308;28;20385;-75
2021/06/13 02:40:40;;;;;;;19.23;11.05;;;12.90;69.30;;;;;;5008959;28;20433;-75
2021/06/13 02:43:06;;;;;;;23.50;10.95;;;12.90;68.20;;;;;;5012363;28;20416;-74
2021/06/13 02:45:31;;;;;;;21.65;10.93;;;12.70;69.20;;;;;;5013970;28;20462;-74
2021/06/13 02:47:57;;;;;;;23.60;11.02;;;12.50;72.30;;;;;;5014129;28;20393;-75
2021/06/13 02:50:24;;;;;;;19.83;10.30;;;12.50;72.60;;;;;;5013847;28;20385;-75
2021/06/13 02:52:58;;;;;;;23.77;11.75;;;12.30;75.20;;;;;;5013142;28;20397;-74
2021/06/13 02:55:41;;;;;;;19.80;11.40;;;12.20;76.00;;;;;;5014176;28;20412;-74
2021/06/13 02:58:20;;;;;;;23.65;10.50;;;12.30;74.60;;;;;;5013634;28;20388;-74
2021/06/13 03:00:49;;;;;;;24.25;10.32;;;12.30;76.30;;;;;;5013702;28;20870;-73
2021/06/13 03:03:18;;;;;;;22.33;11.63;;;12.40;75.10;;;;;;4994979;28;20405;-73
2021/06/13 03:05:44;;;;;;;24.73;11.40;;;12.20;75.50;;;;;;5013803;28;20392;-74
2021/06/13 03:08:10;;;;;;;23.27;11.40;;;12.00;77.10;;;;;;5013791;28;20734;-75
2021/06/13 03:10:36;;;;;;;22.40;10.63;;;11.90;79.20;;;;;;5014289;28;20404;-74
2021/06/13 03:13:03;;;;;;;16.08;9.63;;;11.90;79.30;;;;;;5011208;28;20458;-75
2021/06/13 03:15:31;;;;;;;25.25;10.65;;;11.90;79.20;;;;;;5013824;28;20495;-75
2021/06/13 03:17:57;;;;;;;27.95;11.77;;;11.80;80.20;;;;;;5013616;28;20388;-76
2021/06/13 03:20:23;;;;;;;18.98;10.20;;;11.70;81.10;;;;;;5013821;28;20465;-76
2021/06/13 03:22:49;;;;;;;18.17;10.60;;;11.70;80.90;;;;;;5013594;28;20389;-76
2021/06/13 03:25:15;;;;;;;25.00;10.90;;;11.80;80.50;;;;;;5015328;28;20392;-76
2021/06/13 03:27:43;;;;;;;23.58;10.57;;;12.10;76.60;;;;;;5016108;28;20391;-76
2021/06/13 03:30:09;;;;;;;20.70;9.27;;;12.30;72.70;;;;;;5015362;28;20472;-76
2021/06/13 03:32:35;;;;;;;20.20;10.20;;;12.50;70.00;;;;;;5009247;28;20409;-75
2021/06/13 03:35:01;;;;;;;23.75;9.10;;;12.70;67.60;;;;;;4996225;28;20418;-75
2021/06/13 03:37:28;;;;;;;16.83;9.40;;;12.70;66.80;;;;;;4995941;28;20550;-76
2021/06/13 03:39:54;;;;;;;23.00;9.73;;;12.70;66.60;;;;;;4998769;28;20485;-74
2021/06/13 03:42:20;;;;;;;25.48;10.48;;;12.70;65.90;;;;;;5008920;28;20397;-75
2021/06/13 03:44:47;;;;;;;27.27;10.43;;;12.70;67.30;;;;;;4997960;28;20393;-76
2021/06/13 03:47:13;;;;;;;21.60;10.43;;;12.60;66.80;;;;;;5016338;28;20399;-75
2021/06/13 03:49:40;;;;;;;23.48;10.35;;;12.70;66.60;;;;;;5016589;28;20492;-75
2021/06/13 03:52:06;;;;;;;24.88;9.35;;;12.70;65.90;;;;;;4998533;28;20847;-75
2021/06/13 03:54:32;;;;;;;24.48;9.43;;;12.80;65.40;;;;;;5013631;28;20412;-75
2021/06/13 03:57:02;;;;;;;26.20;10.83;;;12.70;65.60;;;;;;4995631;28;20881;-75
2021/06/13 03:59:28;;;;;;;21.20;9.73;;;12.80;64.60;;;;;;4995655;28;20481;-73
2021/06/13 04:01:56;;;;;;;24.50;10.07;;;12.80;65.00;;;;;;5012479;28;20404;-73
2021/06/13 04:04:25;;;;;;;21.38;10.02;;;12.80;65.00;;;;;;5012531;28;20392;-74
2021/06/13 04:06:51;;;;;;;23.35;11.10;;;12.80;65.10;;;;;;5012587;28;20732;-75
2021/06/13 04:09:18;;;;;;;22.83;10.45;;;12.80;64.70;;;;;;5015232;28;20400;-75
2021/06/13 04:11:48;;;;;;;24.40;10.30;;;12.90;64.00;;;;;;5014957;28;20475;-75
2021/06/13 04:14:16;;;;;;;23.88;10.50;;;12.90;64.10;;;;;;5015267;28;20369;-75
2021/06/13 04:16:46;;;;;;;23.85;10.00;;;12.90;64.90;;;;;;5021615;28;20377;-75
2021/06/13 04:19:12;;;;;;;23.77;10.40;;;12.90;65.50;;;;;;5013916;28;20825;-74
2021/06/13 04:21:39;;;;;;;20.43;9.73;;;13.00;65.30;;;;;;5013650;28;20392;-74
2021/06/13 04:24:12;;;;;;;27.77;10.55;;;13.00;64.10;;;;;;5013204;28;20389;-74
2021/06/13 04:26:38;;;;;;;24.48;10.30;;;13.00;64.60;;;;;;5004639;28;20408;-75
2021/06/13 04:29:05;;;;;;;23.10;10.95;;;13.00;64.80;;;;;;5020146;28;20477;-74
2021/06/13 04:31:30;;;;;;;25.45;10.05;;;13.00;63.80;;;;;;5018859;28;20716;-75
2021/06/13 04:33:57;;;;;;;22.27;10.23;;;13.00;64.70;;;;;;5013474;28;20419;-74
2021/06/13 04:36:23;;;;;;;24.05;10.60;;;13.00;64.30;;;;;;5011899;28;20440;-76
2021/06/13 04:38:49;;;;;;;23.98;9.50;;;13.10;64.00;;;;;;5011343;28;20901;-74
2021/06/13 04:41:15;;;;;;;18.63;9.45;;;13.10;62.80;;;;;;5002979;28;20434;-73
2021/06/13 04:43:41;;;;;;;26.63;10.10;;;13.20;62.50;;;;;;5011671;28;20800;-73
2021/06/13 04:46:10;;;;;;;21.67;11.07;;;13.30;61.00;;;;;;5011857;28;20483;-74
2021/06/13 04:48:37;;;;;;;21.73;11.10;;;13.30;60.80;;;;;;5011222;28;20389;-74
2021/06/13 04:51:09;;;;;;;23.60;10.50;;;13.20;64.10;;;;;;5011716;28;20442;-74
2021/06/13 04:53:47;;;;;;;21.70;11.00;;;13.20;64.80;;;;;;5010679;28;20905;-74
2021/06/13 04:56:51;;;;;;;23.10;10.33;;;13.20;64.30;;;;;;5011509;28;20413;-74
2021/06/13 04:59:17;;;;;;;19.17;9.02;;;13.50;59.00;;;;;;5011549;28;20385;-75
2021/06/13 05:01:43;;;;;;;24.98;10.82;;;13.60;57.70;;;;;;5011109;28;20937;-73
2021/06/13 05:04:09;;;;;;;22.47;10.60;;;13.60;57.50;;;;;;5011052;28;20869;-74
2021/06/13 05:06:35;;;;;;;20.17;10.40;;;13.60;58.40;;;;;;4993597;28;20389;-75
2021/06/13 05:09:00;;;;;;;26.50;9.95;;;13.70;57.20;;;;;;5002791;28;20840;-73
2021/06/13 05:11:26;;;;;;;28.83;10.48;;;13.80;55.80;;;;;;5001742;28;20413;-72
2021/06/13 05:13:52;;;;;;;28.15;10.10;;;13.90;55.10;;;;;;5009382;28;20471;-72
2021/06/13 05:16:18;;;;;;;20.10;9.77;;;14.00;52.00;;;;;;5011076;28;20411;-73
2021/06/13 05:18:43;;;;;;;24.98;10.63;;;14.00;51.70;;;;;;5011198;28;20464;-72
2021/06/13 05:21:09;;;;;;;25.38;10.30;;;14.00;51.80;;;;;;5010894;28;20396;-72
2021/06/13 05:23:35;;;;;;;20.88;9.68;;;14.00;51.60;;;;;;4993274;28;20480;-74
2021/06/13 05:26:00;;;;;;;30.77;10.30;;;14.00;50.60;;;;;;5011241;28;20388;-73
2021/06/13 05:28:26;;;;;;;22.45;10.20;;;14.00;51.40;;;;;;5010846;28;20400;-74
2021/06/13 05:30:52;;;;;;;22.40;9.98;;;14.10;51.00;;;;;;5010909;28;20483;-74
2021/06/13 05:33:18;;;;;;;19.10;9.70;;;14.30;51.40;;;;;;5010642;28;20396;-74
2021/06/13 05:35:44;;;;;;;23.05;10.23;;;14.30;51.10;;;;;;5010662;28;20458;-73
2021/06/13 05:38:11;;;;;;;26.73;10.88;;;14.30;51.20;;;;;;5010950;28;20385;-74
2021/06/13 05:40:37;;;;;;;22.77;9.70;;;14.30;51.00;;;;;;5008910;28;20836;-73
2021/06/13 05:43:05;;;;;;;29.50;9.85;;;14.50;49.10;;;;;;5010877;28;20389;-72
2021/06/13 05:45:32;;;;;;;18.85;9.10;;;14.60;48.40;;;;;;5010579;28;20451;-72
2021/06/13 05:47:58;;;;;;;20.58;9.20;;;14.80;45.10;;;;;;5003728;28;20389;-72
2021/06/13 05:50:25;;;;;;;16.80;9.10;;;14.80;43.60;;;;;;5029068;28;20621;-73
2021/06/13 05:52:50;;;;;;;23.48;9.10;;;14.90;44.50;;;;;;5026148;28;20465;-73
2021/06/13 05:55:18;;;;;;;17.50;8.40;;;14.90;42.20;;;;;;5011118;28;20496;-73
2021/06/13 05:57:45;;;;;;;19.05;8.70;;;14.90;43.30;;;;;;5011168;28;20423;-73
2021/06/13 06:00:16;;;;;;;25.40;9.02;;;14.90;44.30;;;;;;5010436;28;20381;-73
2021/06/13 06:02:43;;;;;;;24.02;9.77;;;15.00;42.30;;;;;;5009877;28;20401;-73
2021/06/13 06:05:10;;;;;;;23.90;8.40;;;15.10;42.40;;;;;;5009278;28;20405;-73
2021/06/13 06:07:36;;;;;;;19.25;8.35;;;15.10;40.00;;;;;;5010774;28;20388;-72
2021/06/13 06:10:03;;;;;;;24.00;9.07;;;15.10;41.00;;;;;;5011077;28;20392;-72
2021/06/13 06:12:29;;;;;;;15.55;7.50;;;15.20;39.70;;;;;;4989713;28;20426;-73
2021/06/13 06:14:54;;;;;;;16.05;8.20;;;15.20;36.90;;;;;;4973150;28;20786;-72
2021/06/13 06:17:20;;;;;;;24.20;8.30;;;15.20;37.70;;;;;;4990938;28;20415;-74
2021/06/13 06:19:47;;;;;;;20.75;8.07;;;15.30;36.80;;;;;;4990942;28;20944;-73
2021/06/13 06:22:12;;;;;;;20.42;7.40;;;15.70;36.50;;;;;;5006281;28;20400;-73
2021/06/13 06:24:38;;;;;;;19.63;7.93;;;15.30;36.60;;;;;;4994296;28;20889;-73
2021/06/13 06:27:04;;;;;;;16.23;6.50;;;15.40;35.90;;;;;;5012610;28;20881;-73
2021/06/13 06:29:30;;;;;;;18.42;7.07;;;15.50;34.50;;;;;;5010945;28;20400;-73
2021/06/13 06:31:56;;;;;;;18.15;7.20;;;15.50;34.10;;;;;;5010562;28;20392;-73
2021/06/13 06:34:21;;;;;;;19.08;7.70;;;15.50;34.30;;;;;;5009871;28;20750;-72
2021/06/13 06:36:47;;;;;;;12.45;7.05;;;15.60;33.90;;;;;;5010326;28;20389;-73
2021/06/13 06:39:14;;;;;;;16.17;6.60;;;15.60;32.80;;;;;;5011254;28;20435;-74
2021/06/13 06:41:39;;;;;;;17.30;7.20;;;15.70;32.30;;;;;;5007116;28;20393;-74
2021/06/13 06:44:06;;;;;;;24.48;6.70;;;15.60;33.00;;;;;;5010322;28;20496;-73
2021/06/13 06:46:32;;;;;;;16.58;6.40;;;15.80;32.50;;;;;;5010072;28;20484;-74
2021/06/13 06:48:59;;;;;;;15.27;7.13;;;15.90;32.00;;;;;;5010408;28;20615;-72
2021/06/13 06:51:26;;;;;;;17.20;6.88;;;15.90;31.70;;;;;;5010168;28;20400;-73
2021/06/13 06:53:57;;;;;;;17.98;6.80;;;15.90;31.80;;;;;;5009662;28;20450;-72
2021/06/13 06:56:23;;;;;;;15.70;5.93;;;15.90;31.60;;;;;;5007893;28;20397;-72
2021/06/13 06:58:48;;;;;;;15.65;6.07;;;16.00;31.10;;;;;;5011859;28;20912;-74
2021/06/13 07:01:14;;;;;;;13.63;6.63;;;16.00;31.10;;;;;;4993018;28;20393;-75
2021/06/13 07:03:39;;;;;;;20.70;6.40;;;16.80;30.80;;;;;;4992981;28;20397;-75
2021/06/13 07:06:05;;;;;;;16.77;6.50;;;16.20;28.40;;;;;;5010455;28;20396;-74
2021/06/13 07:08:30;;;;;;;12.27;5.83;;;16.20;28.20;;;;;;5005838;28;20417;-74
2021/06/13 07:10:56;;;;;;;13.63;6.10;;;16.30;28.90;;;;;;4994689;28;20433;-74
2021/06/13 07:13:22;;;;;;;13.93;7.00;;;16.50;27.60;;;;;;5014134;28;20392;-75
2021/06/13 07:15:48;;;;;;;14.10;6.18;;;16.70;25.60;;;;;;4996292;28;20420;-74
2021/06/13 07:18:14;;;;;;;14.87;6.00;;;16.90;26.70;;;;;;5013720;28;20424;-74
2021/06/13 07:20:40;;;;;;;14.20;5.90;;;17.00;23.90;;;;;;4996126;28;20413;-74
2021/06/13 07:23:05;;;;;;;16.73;5.57;;;16.90;22.30;;;;;;5013323;28;20385;-74
2021/06/13 07:25:31;;;;;;;14.50;6.40;;;16.90;22.40;;;;;;5013574;28;20886;-74
2021/06/13 07:27:56;;;;;;;14.00;5.97;;;16.70;24.10;;;;;;5013335;28;20797;-74
2021/06/13 07:30:22;;;;;;;12.75;5.55;;;16.70;22.90;;;;;;4995791;28;20400;-76
2021/06/13 07:32:49;;;;;;;12.15;5.90;;;16.50;24.10;;;;;;5013141;28;20411;-74
2021/06/13 07:35:15;;;;;;;12.07;5.30;;;16.70;24.20;;;;;;5013206;28;20419;-75
2021/06/13 07:37:42;;;;;;;14.57;6.50;;;16.90;24.10;;;;;;5012906;28;20400;-74
2021/06/13 07:40:09;;;;;;;12.82;6.00;;;17.20;22.50;;;;;;5013167;28;20472;-74
2021/06/13 07:42:35;;;;;;;18.85;6.38;;;17.40;22.80;;;;;;5011515;28;20818;-76
2021/06/13 07:45:01;;;;;;;10.13;6.00;;;17.50;21.60;;;;;;5011724;28;20480;-76
2021/06/13 07:47:29;;;;;;;15.40;6.30;;;17.20;21.70;;;;;;5012318;28;20886;-75
2021/06/13 07:49:55;;;;;;;16.35;6.90;;;17.00;22.50;;;;;;5012223;28;20483;-76
2021/06/13 07:52:20;;;;;;;11.20;6.53;;;16.90;23.30;;;;;;5013498;28;20420;-76
2021/06/13 07:54:46;;;;;;;14.93;6.60;;;16.90;23.80;;;;;;5012430;28;20416;-76
2021/06/13 07:57:11;;;;;;;13.90;5.53;;;17.10;23.70;;;;;;4994025;28;20395;-75
2021/06/13 07:59:39;;;;;;;10.17;5.83;;;17.10;23.20;;;;;;5010657;28;20905;-76
2021/06/13 08:02:05;;;;;;;14.93;6.28;;;17.00;24.00;;;;;;4998153;28;20398;-76
2021/06/13 08:04:36;;;;;;;14.32;6.75;;;17.00;22.90;;;;;;5005865;28;20432;-76
2021/06/13 08:07:03;;;;;;;15.88;6.65;;;17.10;23.30;;;;;;4996610;28;20391;-76
2021/06/13 08:09:28;;;;;;;16.67;6.00;;;17.10;23.20;;;;;;5014478;28;20400;-76
2021/06/13 08:11:54;;;;;;;18.95;6.18;;;17.20;23.10;;;;;;5011609;28;20414;-77
2021/06/13 08:14:20;;;;;;;15.53;6.43;;;17.50;22.10;;;;;;5006398;28;20453;-77
2021/06/13 08:16:46;;;;;;;11.13;5.50;;;17.60;21.20;;;;;;5017060;28;20392;-77
2021/06/13 08:19:11;;;;;;;11.37;5.80;;;17.80;20.20;;;;;;4997184;28;20397;-75
2021/06/13 08:21:37;;;;;;;19.20;6.60;;;18.10;20.10;;;;;;5012449;28;20396;-75
2021/06/13 08:24:03;;;;;;;14.68;5.80;;;18.20;20.00;;;;;;4993556;28;20404;-75
2021/06/13 08:26:30;;;;;;;14.02;5.82;;;18.20;18.80;;;;;;5012390;28;20389;-75
2021/06/13 08:28:56;;;;;;;15.35;6.00;;;18.30;18.50;;;;;;5011596;28;20393;-74
2021/06/13 08:31:22;;;;;;;13.93;5.75;;;18.30;18.70;;;;;;5012328;28;20865;-74
2021/06/13 08:33:48;;;;;;;15.80;6.18;;;18.30;18.00;;;;;;4999436;28;20392;-74
2021/06/13 08:36:15;;;;;;;13.97;5.87;;;18.40;18.10;;;;;;5012051;28;20492;-74
2021/06/13 08:38:41;;;;;;;12.88;5.20;;;18.40;17.50;;;;;;5001599;28;20829;-74
2021/06/13 08:41:07;;;;;;;17.67;6.23;;;18.30;18.10;;;;;;5012328;28;20429;-74
2021/06/13 08:43:33;;;;;;;11.03;5.20;;;18.10;17.70;;;;;;4995826;28;20446;-76
2021/06/13 08:46:01;;;;;;;12.55;5.90;;;18.00;17.70;;;;;;4992334;28;20779;-75
2021/06/13 08:48:28;;;;;;;12.60;5.35;;;18.00;17.30;;;;;;5002203;28;20421;-75
2021/06/13 08:50:54;;;;;;;9.15;5.28;;;18.10;17.20;;;;;;5011026;28;20901;-75
2021/06/13 08:55:53;;;;;;;11.82;5.40;;;18.20;16.90;;;;;;5035185;28;20427;-79
2021/06/13 08:58:19;;;;;;;12.80;5.50;;;18.10;17.30;;;;;;5036007;28;20398;-81
2021/06/13 09:00:47;;;;;;;10.93;5.40;;;19.10;18.10;;;;;;5038198;28;20942;-81
2021/06/13 09:03:13;;;;;;;11.85;6.03;;;18.70;17.00;;;;;;5035703;28;20410;-81
2021/06/13 09:05:39;;;;;;;16.67;5.88;;;18.60;17.10;;;;;;5042223;28;20395;-78
2021/06/13 09:08:08;;;;;;;16.60;6.20;;;18.60;16.20;;;;;;5043044;28;20387;-79
2021/06/13 09:10:35;;;;;;;15.85;5.85;;;18.50;16.30;;;;;;5036840;28;20474;-80
2021/06/13 09:13:15;;;;;;;11.43;5.60;;;18.50;15.80;;;;;;5036936;28;20391;-79
2021/06/13 09:15:44;;;;;;;12.40;5.40;;;18.70;16.20;;;;;;5032407;28;20406;-76
2021/06/13 09:18:26;;;;;;;16.20;6.53;;;18.70;16.30;;;;;;5039454;28;20391;-78
2021/06/13 09:20:52;;;;;;;15.00;6.20;;;18.80;15.60;;;;;;5056286;28;20417;-78
2021/06/13 09:23:18;;;;;;;9.90;4.60;;;19.00;15.70;;;;;;5042975;28;20379;-78
2021/06/13 09:25:45;;;;;;;11.00;5.50;;;19.10;15.60;;;;;;5040560;28;20471;-78
2021/06/13 09:28:13;;;;;;;12.77;5.18;;;19.30;15.80;;;;;;5026906;28;20448;-79
2021/06/13 09:30:43;;;;;;;11.68;4.90;;;19.40;14.10;;;;;;5035030;28;20954;-79
2021/06/13 09:33:18;;;;;;;11.13;5.35;;;19.40;14.10;;;;;;5020112;28;20965;-80
2021/06/13 09:35:46;;;;;;;15.10;6.03;;;19.50;14.00;;;;;;5032659;28;20411;-80
2021/06/13 09:38:18;;;;;;;12.23;5.30;;;19.60;13.80;;;;;;5035512;28;20411;-79
2021/06/13 09:40:52;;;;;;;12.52;5.57;;;19.70;14.00;;;;;;5028505;28;20392;-75
2021/06/13 09:43:24;;;;;;;10.05;5.03;;;19.90;13.30;;;;;;5013408;28;20388;-81
2021/06/13 09:46:15;;;;;;;13.52;5.30;;;19.90;12.80;;;;;;5029572;28;20399;-81
2021/06/13 09:48:45;;;;;;;10.32;5.00;;;20.00;12.80;;;;;;5023778;28;20418;-80
2021/06/13 09:51:14;;;;;;;13.38;4.90;;;19.80;12.60;;;;;;5037419;28;20390;-81
2021/06/13 09:53:45;;;;;;;10.52;4.88;;;19.70;13.80;;;;;;5035517;28;20391;-80
2021/06/13 09:56:12;;;;;;;11.88;5.35;;;19.60;13.30;;;;;;5035686;28;20407;-80
2021/06/13 09:58:56;;;;;;;10.50;5.20;;;19.60;13.40;;;;;;5037248;28;20415;-82
2021/06/13 10:01:30;;;;;;;10.55;4.80;;;19.60;13.30;;;;;;5038861;28;20410;-81
2021/06/13 10:03:58;;;;;;;9.77;5.50;;;19.90;12.40;;;;;;5037327;28;20860;-81
2021/06/13 10:06:28;;;;;;;13.00;5.50;;;19.90;12.50;;;;;;5051779;28;20741;-78
2021/06/13 10:08:56;;;;;;;10.77;5.05;;;19.70;11.90;;;;;;5019549;28;20415;-78
2021/06/13 10:11:22;;;;;;;9.40;5.22;;;19.70;13.40;;;;;;5044851;28;20562;-76
2021/06/13 10:13:55;;;;;;;12.68;5.13;;;19.70;12.70;;;;;;5028855;28;20407;-76
2021/06/13 10:16:44;;;;;;;12.57;5.72;;;19.60;13.10;;;;;;5036878;28;20498;-80
2021/06/13 10:19:18;;;;;;;13.93;5.20;;;19.80;13.30;;;;;;5040189;28;20391;-79
2021/06/13 10:22:01;;;;;;;11.45;5.05;;;20.00;12.90;;;;;;5039163;28;20398;-80
2021/06/13 10:24:29;;;;;;;14.87;5.27;;;20.20;12.40;;;;;;5039489;28;20387;-80
2021/06/13 10:27:03;;;;;;;11.60;5.13;;;20.30;12.10;;;;;;5055991;28;20394;-79
2021/06/13 10:29:32;;;;;;;11.50;5.37;;;20.20;12.00;;;;;;5041247;28;20371;-79
2021/06/13 10:32:00;;;;;;;11.77;5.50;;;20.20;11.20;;;;;;5042681;28;20409;-77
2021/06/13 10:34:27;;;;;;;12.23;5.20;;;20.10;11.10;;;;;;5052616;28;20456;-76
2021/06/13 10:36:54;;;;;;;9.88;5.55;;;20.10;11.20;;;;;;5049261;28;20383;-76
2021/06/13 10:39:23;;;;;;;8.95;5.13;;;20.20;11.30;;;;;;5051577;28;20387;-77
2021/06/13 10:41:49;;;;;;;12.53;4.93;;;20.10;11.20;;;;;;5049988;28;20421;-78
2021/06/13 10:44:28;;;;;;;10.77;4.50;;;20.10;10.70;;;;;;5055626;28;20927;-77
2021/06/13 10:46:56;;;;;;;6.70;4.32;;;19.90;11.80;;;;;;5029422;28;20379;-78
2021/06/13 10:49:34;;;;;;;10.43;4.70;;;19.80;11.30;;;;;;5050195;28;20425;-77
2021/06/13 10:52:13;;;;;;;11.83;4.90;;;19.90;10.60;;;;;;5053519;28;20463;-74
2021/06/13 10:54:54;;;;;;;12.33;4.80;;;20.00;10.80;;;;;;5049296;28;20446;-78
2021/06/13 10:57:20;;;;;;;10.43;4.15;;;20.00;9.90;;;;;;5043463;28;20375;-77
2021/06/13 10:59:47;;;;;;;16.65;5.03;;;20.10;10.00;;;;;;5039969;28;20407;-78
2021/06/13 11:02:18;;;;;;;11.27;5.78;;;20.10;9.30;;;;;;5039639;28;20426;-79
2021/06/13 11:05:05;;;;;;;17.02;7.18;;;20.30;9.20;;;;;;5039356;28;20413;-80
2021/06/13 11:07:43;;;;;;;12.73;4.70;;;20.50;9.50;;;;;;5040389;28;20445;-80
2021/06/13 11:10:15;;;;;;;21.63;11.90;;;20.70;10.30;;;;;;5040500;28;20479;-80
2021/06/13 11:12:52;;;;;;;14.77;5.38;;;20.60;10.50;;;;;;5035245;28;20421;-80
2021/06/13 11:15:35;;;;;;;13.00;5.47;;;20.70;9.30;;;;;;5038347;28;20406;-80
2021/06/13 11:18:08;;;;;;;10.98;5.00;;;20.70;9.10;;;;;;5039770;28;20422;-81
2021/06/13 11:23:23;;;;;;;13.27;5.90;;;20.70;9.20;;;;;;5046692;28;20398;-79
2021/06/13 11:25:52;;;;;;;13.18;5.95;;;20.60;9.10;;;;;;5041846;28;20425;-79
2021/06/13 11:28:27;;;;;;;13.55;6.43;;;20.60;9.70;;;;;;5037730;28;20891;-80
2021/06/13 11:30:54;;;;;;;12.95;5.32;;;20.70;9.30;;;;;;5038585;28;20394;-80
2021/06/13 11:33:43;;;;;;;12.20;5.38;;;21.00;9.20;;;;;;5038653;28;20712;-80
2021/06/13 11:36:15;;;;;;;9.10;4.73;;;21.10;9.40;;;;;;5054813;28;20415;-80
2021/06/13 11:39:04;;;;;;;21.83;7.57;;;21.30;8.50;;;;;;5040015;28;20494;-80
2021/06/13 11:41:34;;;;;;;22.00;8.02;;;21.00;10.40;;;;;;5025357;28;20399;-81
2021/06/13 11:44:06;;;;;;;17.73;7.00;;;21.10;10.70;;;;;;5038421;28;20393;-80
2021/06/13 11:46:35;;;;;;;18.10;8.20;;;21.30;10.40;;;;;;5039254;28;20422;-80
2021/06/13 11:49:03;;;;;;;22.60;9.30;;;21.50;10.50;;;;;;5040029;28;20398;-80
2021/06/13 11:51:29;;;;;;;22.33;9.90;;;21.40;9.00;;;;;;5041348;28;20391;-79
2021/06/13 11:53:55;;;;;;;18.30;7.88;;;21.30;9.40;;;;;;5039639;28;20403;-80
2021/06/13 11:56:36;;;;;;;15.20;7.10;;;21.50;9.10;;;;;;5042423;28;20438;-81
2021/06/13 11:59:04;;;;;;;16.75;6.80;;;21.70;8.60;;;;;;5045414;28;20387;-80
2021/06/13 12:01:33;;;;;;;16.40;6.32;;;21.80;9.00;;;;;;5044349;28;20407;-80
2021/06/13 12:03:59;;;;;;;12.07;6.50;;;21.90;8.40;;;;;;5034018;28;20395;-80
2021/06/13 12:06:25;;;;;;;20.17;7.75;;;22.10;8.60;;;;;;5043431;28;20391;-79
2021/06/13 12:08:52;;;;;;;20.85;7.28;;;21.80;8.30;;;;;;5053447;28;20403;-80
2021/06/13 12:11:34;;;;;;;17.73;6.80;;;21.80;9.10;;;;;;5038031;28;20395;-79
2021/06/13 12:14:37;;;;;;;22.30;7.50;;;21.80;8.60;;;;;;5037194;28;20403;-80
2021/06/13 12:17:13;;;;;;;20.92;8.20;;;21.70;8.10;;;;;;5044668;28;20397;-81
2021/06/13 12:19:48;;;;;;;28.50;9.88;;;21.60;8.40;;;;;;5022812;28;20400;-81
2021/06/13 12:28:06;;;;;;;19.17;7.38;;;21.90;8.70;;;;;;5041090;28;20437;-79
2021/06/13 12:30:33;;;;;;;17.27;7.10;;;22.20;7.70;;;;;;5040727;28;20421;-78
2021/06/13 12:33:10;;;;;;;15.85;7.13;;;22.10;8.10;;;;;;5032778;28;20398;-79
2021/06/13 12:35:47;;;;;;;17.60;7.10;;;22.00;8.10;;;;;;5039779;28;20417;-80
2021/06/13 12:38:16;;;;;;;17.40;7.63;;;22.20;8.50;;;;;;5054918;28;20403;-78
2021/06/13 12:40:52;;;;;;;15.77;7.20;;;22.40;8.60;;;;;;5038931;28;20383;-78
2021/06/13 12:43:36;;;;;;;20.60;6.95;;;22.70;8.40;;;;;;5040454;28;20394;-76
2021/06/13 12:46:03;;;;;;;18.23;7.47;;;22.30;8.30;;;;;;5040060;28;20395;-76
2021/06/13 12:48:29;;;;;;;23.60;7.70;;;21.80;8.70;;;;;;5039812;28;20732;-79
2021/06/13 12:50:55;;;;;;;19.67;7.90;;;22.10;10.00;;;;;;5043202;28;20386;-76
2021/06/13 12:53:20;;;;;;;20.15;8.30;;;22.40;8.40;;;;;;5054162;28;20447;-75
2021/06/13 12:55:51;;;;;;;19.33;8.15;;;22.50;8.30;;;;;;5053066;28;20418;-77